createdAt,value
2022-11-09T00:02:06.820Z,71.03
2022-11-09T00:04:37.784Z,71.18
2022-11-09T00:07:08.822Z,71.23
2022-11-09T00:09:40.412Z,71.26
2022-11-09T00:12:11.254Z,71.23
2022-11-09T00:14:42.034Z,71.22
2022-11-09T00:17:12.885Z,71.33
2022-11-09T00:19:44.483Z,71.50
2022-11-09T00:22:15.254Z,71.59
2022-11-09T00:24:46.002Z,71.57
2022-11-09T00:27:17.905Z,71.59
2022-11-09T00:29:48.893Z,71.73
2022-11-09T00:32:27.488Z,71.76
2022-11-09T00:34:58.828Z,71.83
2022-11-09T00:37:33.863Z,71.74
2022-11-09T00:40:05.063Z,71.94
2022-11-09T00:42:35.949Z,71.86
2022-11-09T00:45:08.043Z,71.91
2022-11-09T00:47:38.967Z,71.99
2022-11-09T00:50:11.152Z,71.85
2022-11-09T00:52:42.011Z,71.98
2022-11-09T00:55:13.131Z,72.13
2022-11-09T00:57:44.077Z,72.09
2022-11-09T01:00:18.168Z,71.88
2022-11-09T01:02:50.866Z,71.98
2022-11-09T01:05:22.568Z,72.00
2022-11-09T01:07:53.528Z,71.95
2022-11-09T01:10:27.879Z,71.99
2022-11-09T01:12:58.819Z,72.06
2022-11-09T01:15:29.665Z,72.06
2022-11-09T01:18:00.560Z,72.08
2022-11-09T01:20:31.458Z,71.98
2022-11-09T01:23:03.908Z,72.11
2022-11-09T01:25:34.931Z,72.09
2022-11-09T01:28:07.431Z,72.01
2022-11-09T01:30:40.498Z,71.96
2022-11-09T01:33:13.472Z,71.92
2022-11-09T01:35:44.378Z,72.02
2022-11-09T01:38:15.312Z,72.04
2022-11-09T01:40:46.179Z,72.06
2022-11-09T01:43:22.174Z,71.96
2022-11-09T01:45:57.417Z,72.15
2022-11-09T01:48:34.257Z,71.94
2022-11-09T01:51:11.251Z,71.99
2022-11-09T01:53:46.917Z,71.98
2022-11-09T01:56:20.655Z,71.96
2022-11-09T01:58:56.299Z,71.92
2022-11-09T02:01:28.161Z,72.07
2022-11-09T02:04:03.898Z,72.10
2022-11-09T02:06:39.631Z,71.92
2022-11-09T02:09:15.478Z,72.10
2022-11-09T02:11:47.565Z,72.01
2022-11-09T02:14:19.979Z,72.02
2022-11-09T02:16:51.280Z,72.09
2022-11-09T02:19:22.222Z,72.16
2022-11-09T02:21:53.159Z,72.27
2022-11-09T02:24:24.125Z,72.14
2022-11-09T02:26:55.367Z,72.21
2022-11-09T02:29:30.414Z,72.34
2022-11-09T02:32:05.311Z,72.30
2022-11-09T02:34:36.707Z,72.26
2022-11-09T02:37:07.736Z,72.38
2022-11-09T02:39:39.259Z,72.32
2022-11-09T02:42:19.867Z,72.37
2022-11-09T02:44:57.563Z,72.48
2022-11-09T02:47:29.020Z,72.50
2022-11-09T02:49:59.909Z,72.51
2022-11-09T02:52:30.811Z,72.59
2022-11-09T02:55:02.142Z,72.51
2022-11-09T02:57:33.141Z,72.52
2022-11-09T03:00:04.959Z,72.62
2022-11-09T03:02:36.902Z,72.71
2022-11-09T03:05:10.101Z,72.71
2022-11-09T03:07:42.664Z,72.76
2022-11-09T03:10:14.014Z,72.82
2022-11-09T03:12:45.435Z,72.84
2022-11-09T03:15:17.946Z,72.96
2022-11-09T03:17:49.608Z,72.81
2022-11-09T03:20:22.032Z,72.93
2022-11-09T03:22:52.924Z,73.00
2022-11-09T03:25:23.950Z,73.05
2022-11-09T03:28:00.440Z,72.94
2022-11-09T03:30:32.042Z,72.97
2022-11-09T03:33:04.565Z,73.05
2022-11-09T03:35:35.580Z,73.12
2022-11-09T03:38:06.884Z,73.10
2022-11-09T03:40:38.230Z,73.19
2022-11-09T03:43:09.117Z,73.14
2022-11-09T03:45:40.133Z,73.13
2022-11-09T03:48:11.060Z,73.04
2022-11-09T03:50:42.046Z,73.20
2022-11-09T03:53:14.304Z,73.22
2022-11-09T03:55:45.601Z,73.24
2022-11-09T03:58:16.558Z,73.24
2022-11-09T04:00:47.464Z,73.37
2022-11-09T04:03:18.557Z,73.38
2022-11-09T04:05:49.672Z,73.37
2022-11-09T04:08:20.586Z,73.43
2022-11-09T04:10:51.551Z,73.37
2022-11-09T04:13:22.618Z,73.47
2022-11-09T04:15:53.718Z,73.51
2022-11-09T04:18:24.578Z,73.39
2022-11-09T04:20:55.451Z,73.44
2022-11-09T04:23:26.466Z,73.46
2022-11-09T04:25:59.007Z,73.51
2022-11-09T04:28:29.905Z,73.68
2022-11-09T04:31:04.529Z,73.68
2022-11-09T04:33:35.434Z,73.44
2022-11-09T04:36:06.865Z,73.49
2022-11-09T04:38:37.865Z,73.61
2022-11-09T04:41:09.483Z,73.63
2022-11-09T04:43:40.387Z,73.73
2022-11-09T04:46:11.293Z,73.58
2022-11-09T04:48:42.202Z,73.59
2022-11-09T04:51:13.523Z,73.58
2022-11-09T04:53:44.335Z,73.59
2022-11-09T04:56:15.324Z,73.55
2022-11-09T04:58:46.278Z,73.65
2022-11-09T05:01:17.913Z,73.67
2022-11-09T05:03:48.832Z,73.72
2022-11-09T05:06:35.127Z,73.76
2022-11-09T05:09:07.626Z,73.74
2022-11-09T05:11:39.104Z,73.80
2022-11-09T05:14:10.006Z,73.82
2022-11-09T05:16:41.021Z,73.85
2022-11-09T05:19:12.027Z,73.90
2022-11-09T05:21:43.265Z,73.98
2022-11-09T05:24:14.440Z,73.95
2022-11-09T05:26:45.452Z,73.94
2022-11-09T05:29:17.842Z,73.99
2022-11-09T05:31:52.275Z,74.26
2022-11-09T05:34:24.230Z,74.15
2022-11-09T05:37:00.713Z,74.29
2022-11-09T05:39:37.864Z,74.33
2022-11-09T05:42:10.450Z,74.43
2022-11-09T05:44:53.651Z,74.36
2022-11-09T05:48:18.167Z,74.33
2022-11-09T05:51:01.374Z,74.30
2022-11-09T05:53:49.374Z,74.38
2022-11-09T05:56:20.691Z,74.37
2022-11-09T05:58:51.616Z,74.28
2022-11-09T06:01:22.695Z,74.31
2022-11-09T06:03:57.803Z,74.19
2022-11-09T06:06:30.112Z,74.32
2022-11-09T06:09:01.315Z,74.36
2022-11-09T06:11:36.138Z,74.51
2022-11-09T06:14:09.079Z,74.40
2022-11-09T06:16:40.927Z,74.41
2022-11-09T06:19:11.905Z,74.18
2022-11-09T06:21:42.980Z,74.20
2022-11-09T06:24:14.348Z,74.13
2022-11-09T06:26:46.580Z,74.12
2022-11-09T06:29:20.163Z,74.16
2022-11-09T06:32:01.604Z,74.16
2022-11-09T06:34:35.159Z,74.20
2022-11-09T06:37:06.129Z,74.00
2022-11-09T06:39:37.215Z,73.75
2022-11-09T06:42:08.406Z,73.73
2022-11-09T06:44:39.491Z,73.58
2022-11-09T06:47:10.389Z,73.58
2022-11-09T06:49:42.669Z,73.59
2022-11-09T06:52:13.977Z,73.68
2022-11-09T06:54:44.949Z,73.61
2022-11-09T06:57:16.023Z,73.91
2022-11-09T06:59:47.006Z,73.71
2022-11-09T07:02:19.197Z,73.72
2022-11-09T07:04:52.646Z,73.44
2022-11-09T07:07:27.928Z,72.37
2022-11-09T07:10:00.630Z,72.02
2022-11-09T07:12:32.714Z,71.04
2022-11-09T07:15:04.205Z,70.53
2022-11-09T07:17:37.147Z,70.41
2022-11-09T07:20:13.470Z,70.44
2022-11-09T07:22:44.681Z,70.05
2022-11-09T07:25:15.770Z,69.55
2022-11-09T07:27:47.723Z,69.60
2022-11-09T07:30:21.876Z,69.58
2022-11-09T07:33:08.807Z,69.40
2022-11-09T07:35:41.009Z,69.84
2022-11-09T07:38:12.348Z,69.94
2022-11-09T07:40:44.020Z,70.00
2022-11-09T07:43:16.095Z,70.13
2022-11-09T07:45:49.876Z,70.06
2022-11-09T07:48:21.260Z,69.79
2022-11-09T07:50:52.683Z,69.37
2022-11-09T07:53:24.067Z,69.20
2022-11-09T07:56:01.575Z,69.38
2022-11-09T07:58:34.825Z,69.31
2022-11-09T08:01:10.288Z,69.71
2022-11-09T08:03:39.948Z,70.01
2022-11-09T08:06:17.172Z,69.86
2022-11-09T08:08:50.365Z,69.45
2022-11-09T08:11:21.345Z,69.30
2022-11-09T08:13:53.050Z,68.78
2022-11-09T08:16:24.307Z,68.30
2022-11-09T08:18:59.747Z,67.90
2022-11-09T08:21:30.670Z,67.73
2022-11-09T08:24:02.043Z,67.69
2022-11-09T08:26:33.180Z,67.79
2022-11-09T08:29:04.139Z,67.88
2022-11-09T08:31:35.646Z,67.90
2022-11-09T08:34:06.924Z,67.57
2022-11-09T08:36:38.599Z,66.66
2022-11-09T08:39:11.721Z,66.39
2022-11-09T08:41:45.053Z,65.46
2022-11-09T08:44:16.082Z,64.61
2022-11-09T08:46:47.120Z,63.48
2022-11-09T08:49:18.161Z,62.72
2022-11-09T08:51:49.306Z,62.61
2022-11-09T08:54:22.583Z,62.85
2022-11-09T08:56:57.951Z,62.69
2022-11-09T08:59:28.869Z,62.05
2022-11-09T09:02:00.200Z,60.80
2022-11-09T09:04:33.663Z,60.56
2022-11-09T09:07:06.138Z,60.71
2022-11-09T09:09:38.366Z,60.69
2022-11-09T09:12:11.476Z,60.47
2022-11-09T09:14:42.512Z,60.40
2022-11-09T09:17:14.006Z,60.14
2022-11-09T09:19:50.115Z,60.20
2022-11-09T09:22:21.382Z,59.99
2022-11-09T09:24:52.392Z,59.33
2022-11-09T09:27:23.903Z,59.33
2022-11-09T09:29:54.704Z,59.33
2022-11-09T09:32:30.214Z,59.19
2022-11-09T09:35:01.461Z,59.47
2022-11-09T09:37:32.664Z,59.65
2022-11-09T09:40:03.707Z,59.46
2022-11-09T09:42:39.500Z,59.15
2022-11-09T09:45:19.767Z,58.90
2022-11-09T09:48:01.042Z,58.73
2022-11-09T09:50:38.257Z,58.51
2022-11-09T09:53:24.348Z,58.25
2022-11-09T09:56:06.101Z,58.54
2022-11-09T09:58:40.347Z,58.42
2022-11-09T10:01:16.755Z,58.69
2022-11-09T10:03:48.890Z,59.32
2022-11-09T10:06:39.854Z,59.86
2022-11-09T10:09:25.192Z,60.13
2022-11-09T10:12:06.636Z,60.21
2022-11-09T10:15:12.633Z,60.18
2022-11-09T10:17:56.816Z,60.29
2022-11-09T10:20:38.621Z,60.61
2022-11-09T10:23:36.877Z,60.93
2022-11-09T10:26:17.725Z,61.25
2022-11-09T10:29:15.137Z,61.22
2022-11-09T10:31:48.274Z,61.39
2022-11-09T10:34:22.334Z,61.48
2022-11-09T10:37:05.705Z,61.50
2022-11-09T10:39:46.445Z,61.65
2022-11-09T10:42:37.062Z,62.00
2022-11-09T10:45:33.436Z,62.41
2022-11-09T10:48:35.743Z,62.65
2022-11-09T10:51:40.989Z,62.37
2022-11-09T10:54:34.929Z,62.48
2022-11-09T10:57:26.365Z,62.36
2022-11-09T11:00:21.916Z,62.38
2022-11-09T11:03:20.286Z,62.39
2022-11-09T11:06:17.018Z,62.20
2022-11-09T11:09:21.993Z,62.28
2022-11-09T11:12:20.973Z,62.26
2022-11-09T11:15:26.694Z,62.31
2022-11-09T11:18:22.190Z,62.75
2022-11-09T11:21:19.264Z,62.82
2022-11-09T11:24:22.637Z,62.79
2022-11-09T11:27:18.166Z,62.52
2022-11-09T11:30:18.224Z,62.34
2022-11-09T11:33:17.993Z,62.38
2022-11-09T11:36:19.446Z,62.29
2022-11-09T11:39:21.004Z,62.30
2022-11-09T11:42:30.460Z,62.38
2022-11-09T11:45:41.601Z,62.40
2022-11-09T11:49:06.876Z,62.46
2022-11-09T11:52:04.484Z,62.52
2022-11-09T11:55:09.020Z,62.57
2022-11-09T11:58:16.139Z,62.49
2022-11-09T12:01:14.459Z,62.47
2022-11-09T12:04:22.399Z,62.36
2022-11-09T12:07:30.087Z,62.41
2022-11-09T12:10:32.197Z,62.40
2022-11-09T12:13:44.486Z,62.51
2022-11-09T12:16:43.306Z,62.25
2022-11-09T12:20:05.044Z,62.09
2022-11-09T12:23:05.734Z,62.34
2022-11-09T12:26:14.879Z,62.19
2022-11-09T12:29:15.523Z,61.92
2022-11-09T12:32:22.962Z,61.99
2022-11-09T12:35:32.990Z,61.92
2022-11-09T12:38:26.433Z,62.11
2022-11-09T12:41:21.792Z,62.02
2022-11-09T12:44:18.190Z,61.96
2022-11-09T12:47:16.087Z,61.98
2022-11-09T12:50:07.681Z,61.80
2022-11-09T12:52:58.433Z,61.84
2022-11-09T12:55:53.276Z,61.92
2022-11-09T12:58:42.821Z,62.11
2022-11-09T13:01:53.145Z,61.96
2022-11-09T13:04:57.775Z,61.99
2022-11-09T13:07:53.442Z,61.96
2022-11-09T13:10:44.304Z,62.05
2022-11-09T13:13:34.383Z,62.15
2022-11-09T13:16:38.214Z,62.19
2022-11-09T13:19:52.492Z,62.21
2022-11-09T13:23:01.351Z,62.12
2022-11-09T13:25:53.340Z,62.16
2022-11-09T13:29:12.067Z,62.29
2022-11-09T13:32:21.782Z,62.31
2022-11-09T13:35:49.605Z,62.27
2022-11-09T13:38:49.259Z,62.28
2022-11-09T13:41:45.627Z,62.39
2022-11-09T13:44:39.336Z,62.33
2022-11-09T13:47:35.545Z,62.40
2022-11-09T13:50:28.158Z,62.39
2022-11-09T13:53:53.005Z,62.46
2022-11-09T13:56:45.489Z,62.48
2022-11-09T13:59:39.266Z,62.58
2022-11-09T14:02:29.382Z,62.67
2022-11-09T14:05:34.720Z,62.67
2022-11-09T14:08:29.211Z,62.84
2022-11-09T14:11:50.343Z,63.02
2022-11-09T14:15:22.185Z,63.10
2022-11-09T14:18:25.818Z,63.13
2022-11-09T14:21:38.141Z,63.16
2022-11-09T14:24:32.860Z,63.27
2022-11-09T14:27:23.936Z,63.26
2022-11-09T14:30:24.836Z,63.45
2022-11-09T14:33:30.790Z,63.52
2022-11-09T14:36:20.985Z,63.65
2022-11-09T14:39:28.695Z,63.65
2022-11-09T14:42:22.181Z,63.59
2022-11-09T14:45:18.624Z,63.62
2022-11-09T14:48:21.188Z,63.57
2022-11-09T14:51:14.753Z,63.62
2022-11-09T14:54:16.452Z,63.62
2022-11-09T14:57:06.644Z,63.73
2022-11-09T14:59:57.842Z,63.78
2022-11-09T15:02:47.775Z,63.91
2022-11-09T15:05:42.036Z,64.04
2022-11-09T15:08:35.451Z,64.01
2022-11-09T15:11:35.869Z,64.09
2022-11-09T15:14:30.553Z,64.12
2022-11-09T15:17:23.409Z,64.23
2022-11-09T15:20:29.284Z,64.28
2022-11-09T15:23:40.390Z,64.29
2022-11-09T15:26:38.885Z,64.32
2022-11-09T15:29:39.618Z,64.38
2022-11-09T15:32:34.181Z,64.33
2022-11-09T15:35:24.022Z,64.50
2022-11-09T15:38:32.337Z,64.45
2022-11-09T15:41:23.470Z,64.54
2022-11-09T15:44:17.349Z,64.58
2022-11-09T15:47:20.068Z,64.78
2022-11-09T15:50:19.538Z,64.84
2022-11-09T15:53:11.405Z,65.00
2022-11-09T15:56:02.412Z,64.96
2022-11-09T15:58:53.575Z,65.00
2022-11-09T16:01:43.760Z,65.16
2022-11-09T16:04:33.685Z,65.23
2022-11-09T16:07:24.955Z,65.29
2022-11-09T16:10:17.960Z,65.33
2022-11-09T16:13:09.920Z,65.47
2022-11-09T16:16:08.197Z,65.49
2022-11-09T16:18:59.292Z,65.60
2022-11-09T16:21:49.444Z,65.60
2022-11-09T16:24:40.480Z,65.70
2022-11-09T16:30:45.539Z,65.76
2022-11-09T16:33:35.201Z,65.85
2022-11-09T16:36:28.133Z,65.90
2022-11-09T16:39:22.407Z,66.11
2022-11-09T16:42:14.804Z,66.11
2022-11-09T16:45:11.225Z,66.22
2022-11-09T16:47:59.648Z,66.16
2022-11-09T16:50:50.323Z,66.24
2022-11-09T16:53:43.385Z,66.31
2022-11-09T16:56:33.844Z,66.38
2022-11-09T16:59:27.480Z,66.23
2022-11-09T17:02:19.705Z,66.37
2022-11-09T17:05:11.772Z,66.52
2022-11-09T17:08:02.135Z,66.59
2022-11-09T17:10:54.397Z,66.63
2022-11-09T17:13:44.992Z,66.61
2022-11-09T17:16:35.418Z,66.80
2022-11-09T17:19:25.195Z,66.78
2022-11-09T17:22:15.287Z,66.81
2022-11-09T17:25:05.839Z,66.85
2022-11-09T17:27:55.707Z,67.01
2022-11-09T17:30:45.350Z,67.26
2022-11-09T17:33:35.152Z,67.15
2022-11-09T17:36:48.865Z,67.23
2022-11-09T17:39:35.223Z,67.37
2022-11-09T17:42:24.952Z,67.53
2022-11-09T17:45:14.651Z,67.52
2022-11-09T17:48:05.724Z,67.57
2022-11-09T17:50:56.003Z,67.65
2022-11-09T17:53:45.896Z,67.68
2022-11-09T17:56:36.260Z,67.72
2022-11-09T17:59:25.769Z,67.83
2022-11-09T18:02:16.398Z,67.92
2022-11-09T18:05:07.537Z,68.03
2022-11-09T18:07:57.579Z,67.87
2022-11-09T18:10:51.199Z,68.05
2022-11-09T18:13:41.114Z,68.24
2022-11-09T18:16:30.944Z,68.20
2022-11-09T18:19:21.246Z,68.09
2022-11-09T18:22:12.914Z,68.17
2022-11-09T18:25:02.729Z,68.19
2022-11-09T18:27:56.756Z,68.35
2022-11-09T18:30:46.432Z,68.28
2022-11-09T18:33:40.871Z,68.25
2022-11-09T18:36:30.856Z,68.45
2022-11-09T18:39:20.325Z,68.44
2022-11-09T18:42:10.214Z,68.43
2022-11-09T18:45:01.475Z,68.46
2022-11-09T18:47:54.650Z,68.30
2022-11-09T18:50:44.786Z,68.55
2022-11-09T18:53:37.672Z,68.50
2022-11-09T18:56:27.880Z,68.48
2022-11-09T18:59:17.715Z,68.41
2022-11-09T19:02:09.043Z,68.59
2022-11-09T19:04:59.145Z,68.87
2022-11-09T19:07:49.168Z,68.76
2022-11-09T19:10:39.453Z,68.80
2022-11-09T19:13:29.344Z,68.76
2022-11-09T19:16:19.581Z,68.79
2022-11-09T19:19:14.722Z,68.84
2022-11-09T19:22:05.034Z,68.84
2022-11-09T19:24:54.874Z,68.77
2022-11-09T19:27:45.010Z,68.57
2022-11-09T19:30:34.893Z,68.57
2022-11-09T19:33:24.738Z,68.75
2022-11-09T19:36:29.761Z,68.76
2022-11-09T19:39:22.917Z,69.04
2022-11-09T19:42:12.995Z,68.92
2022-11-09T19:45:03.228Z,68.87
2022-11-09T19:47:52.885Z,68.87
2022-11-09T19:50:47.318Z,68.98
2022-11-09T19:53:41.179Z,68.99
2022-11-09T19:56:33.385Z,68.95
2022-11-09T19:59:24.055Z,68.99
2022-11-09T20:02:17.537Z,69.03
2022-11-09T20:05:09.255Z,68.98
2022-11-09T20:07:59.258Z,69.04
2022-11-09T20:10:54.455Z,69.18
2022-11-09T20:13:44.147Z,69.36
2022-11-09T20:16:35.463Z,69.18
2022-11-09T20:19:26.205Z,69.27
2022-11-09T20:22:16.125Z,69.29
2022-11-09T20:25:08.889Z,69.29
2022-11-09T20:27:58.459Z,69.53
2022-11-09T20:30:48.225Z,69.37
2022-11-09T20:33:38.271Z,69.44
2022-11-09T20:36:28.139Z,69.43
2022-11-09T20:39:18.181Z,69.43
2022-11-09T20:42:10.023Z,69.52
2022-11-09T20:45:02.330Z,69.55
2022-11-09T20:48:31.075Z,69.79
2022-11-09T20:51:08.246Z,69.90
2022-11-09T20:54:02.442Z,69.86
2022-11-09T20:56:57.398Z,69.89
2022-11-09T20:59:50.118Z,69.94
2022-11-09T21:02:39.467Z,69.78
2022-11-09T21:05:32.685Z,69.91
2022-11-09T21:08:51.030Z,70.02
2022-11-09T21:12:09.666Z,70.08
2022-11-09T21:15:36.855Z,70.02
2022-11-09T21:18:28.260Z,70.12
2022-11-09T21:21:21.050Z,70.05
2022-11-09T21:24:30.146Z,70.26
2022-11-09T21:27:37.958Z,70.18
2022-11-09T21:30:27.783Z,70.22
2022-11-09T21:33:18.147Z,70.01
2022-11-09T21:36:11.932Z,70.29
2022-11-09T21:39:02.142Z,70.10
2022-11-09T21:41:52.347Z,70.21
2022-11-09T21:44:42.731Z,70.19
2022-11-09T21:47:32.896Z,70.27
2022-11-09T21:50:23.629Z,70.37
2022-11-09T21:53:13.553Z,70.36
2022-11-09T21:56:04.207Z,70.35
2022-11-09T21:58:54.410Z,70.32
2022-11-09T22:01:45.608Z,70.42
2022-11-09T22:04:35.461Z,70.30
2022-11-09T22:07:25.713Z,70.56
2022-11-09T22:10:17.306Z,70.48
2022-11-09T22:13:27.681Z,70.60
2022-11-09T22:16:22.971Z,70.65
2022-11-09T22:19:30.488Z,70.50
2022-11-09T22:22:20.690Z,70.63
2022-11-09T22:25:11.310Z,70.80
2022-11-09T22:28:01.052Z,70.73
2022-11-09T22:30:50.852Z,70.82
2022-11-09T22:33:42.546Z,70.96
2022-11-09T22:36:32.130Z,71.02
2022-11-09T22:39:22.106Z,71.06
2022-11-09T22:42:12.001Z,71.13
2022-11-09T22:45:02.143Z,71.28
2022-11-09T22:47:51.555Z,71.29
2022-11-09T22:50:40.986Z,71.29
2022-11-09T22:53:31.026Z,71.19
2022-11-09T22:56:21.439Z,71.58
2022-11-09T22:59:11.086Z,71.40
2022-11-09T23:02:00.587Z,71.60
2022-11-09T23:04:50.473Z,71.65
2022-11-09T23:07:40.273Z,71.48
2022-11-09T23:10:29.997Z,71.43
2022-11-09T23:13:19.979Z,71.59
2022-11-09T23:16:11.966Z,71.62
2022-11-09T23:19:01.560Z,71.63
2022-11-09T23:21:51.169Z,71.80
2022-11-09T23:25:06.886Z,71.63
2022-11-09T23:27:56.517Z,71.56
2022-11-09T23:30:46.336Z,71.69
2022-11-09T23:33:36.309Z,71.78
2022-11-09T23:36:27.258Z,71.62
2022-11-09T23:39:16.853Z,71.59
2022-11-09T23:42:06.772Z,71.72
2022-11-09T23:44:56.066Z,71.64
2022-11-09T23:47:45.795Z,71.73
2022-11-09T23:50:35.474Z,71.79
2022-11-09T23:53:25.184Z,71.66
2022-11-09T23:56:15.004Z,71.63
2022-11-09T23:59:04.487Z,71.73
